Current | Forecast
Updated: 7:00 AM JST on June 24, 2017
Observed at Hakodate Airport, Japan
Temperature 64°F
Humidity 83%
Dew Point 59°F
Wind West at 6 mph
Pressure 29.71 in (Falling)
Conditions Mostly Cloudy
Visibility 6.2 miles
UV 1 out of 16
Clouds (FEW) : 1200 ft
Mostly Cloudy (BKN) : 1800 ft
Yesterday's Maximum 66°F
Yesterday's Minimum 61°F approx.
Yesterday's Heating Degree Days 2 approx.
Sunrise4:02 AM JST
Sunset7:16 PM JST
Moon Rise4:08 AM JST
Moon Set7:11 PM JST
Moon PhaseMoon Phase
Waning Crescent
Raw METARMETAR RJCH 232200Z 28005KT 260V330 9999 FEW012 BKN018 18/15 Q1006


Monday
. High: 60° F.
Tuesday
. High: 59° F.
Wednesday
. High: 55° F.
Thursday
. High: 55° F.
Friday
. High: 57° F.
Saturday
. High: 55° F.
Sunday
. High: 53° F.
Monday
. High: 53° F.

Units: English | Metric

Find the Weather for any City, State or Zipcode, or Country:

U.S. State List | Severe Weather | Tropical Storms | Ski Conditions
United States | Canada | Central America | South America | Asia | Europe | Australia | Africa | Islands

Weather Underground

© Copyright 2017
The Weather Company, LLC